Time;durP1;ratioP1;P1;durP2;ratioP2;P2;SDS_P1;SDS_P2;PMS_P1;PMS_P2;Temp;Humidity;BMP_temperature;BMP_pressure;BME280_temperature;BME280_humidity;BME280_pressure;Samples;Min_cycle;Max_cycle;Signal;HPM_P1;HPM_P2
2021/08/07 00:02:02;;;;;;;14.23;7.73;;;;;;;14.63;100.00;100096.63;5068950;28;20076;-69
2021/08/07 00:04:27;;;;;;;10.43;5.82;;;;;;;14.54;100.00;100096.00;5069496;28;20024;-69
2021/08/07 00:06:53;;;;;;;9.83;6.97;;;;;;;14.48;100.00;100110.22;5050923;28;20040;-69
2021/08/07 00:09:18;;;;;;;9.27;5.93;;;;;;;14.52;100.00;100102.59;5069631;28;20028;-69
2021/08/07 00:11:44;;;;;;;10.43;6.10;;;;;;;14.50;100.00;100096.59;5068690;28;20038;-69
2021/08/07 00:14:09;;;;;;;15.83;6.57;;;;;;;14.47;100.00;100096.97;5068421;28;20040;-69
2021/08/07 00:16:35;;;;;;;11.90;7.80;;;;;;;14.47;100.00;100099.66;5069399;28;20109;-69
2021/08/07 00:19:00;;;;;;;10.10;7.50;;;;;;;14.39;100.00;100099.84;5069408;28;20032;-69
2021/08/07 00:21:25;;;;;;;15.27;9.07;;;;;;;14.44;100.00;100102.75;5069304;28;20059;-69
2021/08/07 00:23:51;;;;;;;16.37;8.80;;;;;;;14.41;100.00;100105.84;5069527;28;20043;-69
2021/08/07 00:26:16;;;;;;;21.17;8.83;;;;;;;14.36;100.00;100111.84;5068867;28;20036;-69
2021/08/07 00:28:42;;;;;;;18.30;8.93;;;;;;;14.33;100.00;100113.06;5068905;28;20032;-69
2021/08/07 00:31:07;;;;;;;16.60;10.00;;;;;;;14.38;100.00;100112.47;5069268;28;20086;-69
2021/08/07 00:33:32;;;;;;;17.77;11.47;;;;;;;14.29;100.00;100116.38;5051452;28;20036;-69
2021/08/07 00:35:58;;;;;;;19.60;12.37;;;;;;;14.25;100.00;100105.19;5067785;28;20345;-69
2021/08/07 00:38:23;;;;;;;21.67;12.60;;;;;;;14.27;100.00;100097.75;5051843;28;20028;-69
2021/08/07 00:40:51;;;;;;;23.33;14.10;;;;;;;14.25;100.00;100110.56;5051711;28;20127;-69
2021/08/07 00:43:17;;;;;;;34.60;17.10;;;;;;;14.26;100.00;100114.91;5068184;28;20029;-69
2021/08/07 00:45:42;;;;;;;35.85;19.58;;;;;;;14.23;100.00;100109.94;5067699;28;20021;-69
2021/08/07 00:48:13;;;;;;;31.80;19.25;;;;;;;14.23;100.00;100112.63;5067934;28;20115;-69
2021/08/07 00:50:51;;;;;;;38.33;20.00;;;;;;;14.24;100.00;100106.22;5068150;28;20036;-69
2021/08/07 00:53:21;;;;;;;43.28;21.52;;;;;;;14.26;100.00;100111.41;5068080;28;20047;-69
2021/08/07 00:55:49;;;;;;;38.22;21.10;;;;;;;14.31;100.00;100104.38;5067429;28;20488;-69
2021/08/07 00:58:15;;;;;;;36.75;20.63;;;;;;;14.38;100.00;100114.34;5068928;28;20119;-69
2021/08/07 01:00:42;;;;;;;34.15;19.75;;;;;;;14.49;100.00;100111.03;5067573;28;20037;-69
2021/08/07 01:03:31;;;;;;;32.13;19.52;;;;;;;14.51;100.00;100107.09;5051283;28;20123;-69
2021/08/07 01:06:15;;;;;;;36.33;19.98;;;;;;;14.46;100.00;100106.06;5050643;28;20036;-69
2021/08/07 01:08:50;;;;;;;35.00;20.35;;;;;;;14.49;100.00;100111.03;5067740;28;20036;-69
2021/08/07 01:11:47;;;;;;;31.25;19.13;;;;;;;14.56;100.00;100104.69;5067520;28;20045;-69
2021/08/07 01:14:20;;;;;;;35.58;17.50;;;;;;;14.57;100.00;100100.13;5051067;28;20119;-69
2021/08/07 01:16:49;;;;;;;27.75;18.02;;;;;;;14.55;100.00;100096.81;5068109;28;20036;-69
2021/08/07 01:19:17;;;;;;;26.73;17.25;;;;;;;14.50;100.00;100101.97;5067394;28;20012;-69
2021/08/07 01:21:58;;;;;;;29.58;16.65;;;;;;;14.37;100.00;100097.38;5067158;28;20052;-69
2021/08/07 01:24:43;;;;;;;41.50;21.33;;;;;;;14.31;100.00;100092.81;5067324;28;20115;-69
2021/08/07 01:27:28;;;;;;;40.85;19.27;;;;;;;14.31;100.00;100093.66;5066913;28;20514;-69
2021/08/07 01:30:07;;;;;;;42.85;21.58;;;;;;;14.28;100.00;100088.69;5067421;28;20032;-69
2021/08/07 01:32:33;;;;;;;37.88;21.45;;;;;;;14.27;100.00;100084.34;5067015;28;20032;-69
2021/08/07 01:35:02;;;;;;;39.28;21.52;;;;;;;14.26;100.00;100084.56;5050704;28;20032;-69
2021/08/07 01:37:28;;;;;;;43.63;24.10;;;;;;;14.25;100.00;100083.72;5066901;28;20104;-69
2021/08/07 01:40:09;;;;;;;38.35;20.67;;;;;;;14.21;100.00;100070.91;5067177;28;20039;-69
2021/08/07 01:42:54;;;;;;;38.67;22.67;;;;;;;14.21;100.00;100070.91;5085194;28;20048;-69
2021/08/07 01:45:24;;;;;;;47.03;24.45;;;;;;;14.19;100.00;100070.25;5069005;28;20059;-69
2021/08/07 01:47:56;;;;;;;50.27;25.07;;;;;;;14.19;100.00;100076.47;5085666;28;20522;-69
2021/08/07 01:50:35;;;;;;;37.17;22.45;;;;;;;14.15;100.00;100078.72;5069287;28;20051;-69
2021/08/07 01:53:07;;;;;;;40.03;23.00;;;;;;;14.16;100.00;100082.22;5068769;28;20059;-69
2021/08/07 01:55:36;;;;;;;36.75;21.90;;;;;;;14.09;100.00;100074.19;5069034;28;20032;-69
2021/08/07 01:58:17;;;;;;;60.08;26.38;;;;;;;14.08;100.00;100079.75;5068981;28;20393;-69
2021/08/07 02:00:45;;;;;;;48.08;23.95;;;;;;;13.97;100.00;100074.97;5052578;28;20046;-69
2021/08/07 02:03:15;;;;;;;46.78;23.63;;;;;;;13.95;100.00;100075.16;5068854;28;20028;-69
2021/08/07 02:05:43;;;;;;;45.58;25.17;;;;;;;14.03;100.00;100076.84;5085489;28;20036;-69
2021/08/07 02:08:10;;;;;;;39.42;20.92;;;;;;;13.94;100.00;100066.28;5068609;28;20040;-69
2021/08/07 02:10:44;;;;;;;46.80;24.88;;;;;;;13.94;100.00;100071.66;5069071;28;20032;-69
2021/08/07 02:13:13;;;;;;;41.70;22.60;;;;;;;13.96;100.00;100066.09;5065757;28;20072;-69
2021/08/07 02:15:40;;;;;;;39.53;22.08;;;;;;;13.92;100.00;100065.66;5066760;28;20021;-69
2021/08/07 02:18:13;;;;;;;43.60;23.17;;;;;;;13.88;100.00;100059.06;5066563;28;20416;-69
2021/08/07 02:20:40;;;;;;;36.38;21.08;;;;;;;13.86;100.00;100061.09;5067796;28;20032;-69
2021/08/07 02:23:08;;;;;;;32.50;20.83;;;;;;;13.90;100.00;100064.19;5050396;28;20060;-69
2021/08/07 02:25:41;;;;;;;32.47;20.10;;;;;;;13.88;100.00;100060.88;5066769;28;20016;-69
2021/08/07 02:28:18;;;;;;;34.58;20.52;;;;;;;13.82;100.00;100051.78;5065999;28;20059;-69
2021/08/07 02:30:45;;;;;;;31.63;20.63;;;;;;;13.84;100.00;100048.91;5052854;28;20032;-69
2021/08/07 02:33:16;;;;;;;39.33;22.42;;;;;;;13.79;100.00;100056.72;5070220;28;20032;-69
2021/08/07 02:35:42;;;;;;;44.42;23.83;;;;;;;13.77;100.00;100043.53;5069886;28;20372;-69
2021/08/07 02:38:08;;;;;;;33.83;20.87;;;;;;;13.74;100.00;100049.25;5070330;28;20028;-69
2021/08/07 02:40:34;;;;;;;30.02;19.63;;;;;;;13.73;100.00;100050.31;5070374;28;20310;-69
2021/08/07 02:43:04;;;;;;;50.42;25.17;;;;;;;13.69;100.00;100051.72;5054044;28;20541;-69
2021/08/07 02:45:35;;;;;;;42.22;22.23;;;;;;;13.71;100.00;100055.03;5069890;28;20028;-69
2021/08/07 02:48:01;;;;;;;38.60;23.00;;;;;;;13.69;100.00;100065.13;5069812;28;20055;-69
2021/08/07 02:50:30;;;;;;;45.33;24.20;;;;;;;13.70;100.00;100074.84;5053773;28;20034;-69
2021/08/07 02:52:57;;;;;;;49.22;24.48;;;;;;;13.64;100.00;100070.28;5053538;28;20032;-69
2021/08/07 02:55:24;;;;;;;;;;;;;;;13.61;100.00;100070.69;5070201;28;20028;-69
2021/08/07 02:57:59;;;;;;;59.20;25.70;;;;;;;13.56;100.00;100063.22;5069871;28;19919;-69
2021/08/07 03:00:24;;;;;;;75.30;28.67;;;;;;;13.53;100.00;100066.28;5069820;28;20032;-69
2021/08/07 03:02:50;;;;;;;75.05;28.92;;;;;;;13.49;100.00;100073.91;5053170;28;20040;-69
2021/08/07 03:05:18;;;;;;;70.77;28.67;;;;;;;13.48;100.00;100071.44;5070681;28;20111;-69
2021/08/07 03:07:47;;;;;;;50.55;25.58;;;;;;;13.47;100.00;100081.34;5069626;28;20024;-69
2021/08/07 03:10:14;;;;;;;57.28;27.17;;;;;;;13.45;100.00;100078.00;5069637;28;20067;-69
2021/08/07 03:12:42;;;;;;;52.40;25.92;;;;;;;13.50;100.00;100078.25;5053074;28;20492;-69
2021/08/07 03:15:08;;;;;;;58.45;27.75;;;;;;;13.49;100.00;100068.56;5052604;28;20040;-69
2021/08/07 03:17:34;;;;;;;43.33;24.02;;;;;;;13.51;100.00;100063.00;5069428;28;20098;-69
2021/08/07 03:20:00;;;;;;;43.78;23.42;;;;;;;13.51;100.00;100066.50;5069413;28;20131;-69
2021/08/07 03:22:26;;;;;;;66.55;27.70;;;;;;;13.50;100.00;100058.66;5069484;28;20477;-69
2021/08/07 03:24:53;;;;;;;44.45;22.83;;;;;;;13.54;100.00;100064.47;5069205;28;20048;-69
2021/08/07 03:27:19;;;;;;;42.15;22.15;;;;;;;13.55;100.00;100060.75;5068510;28;20107;-69
2021/08/07 03:29:52;;;;;;;39.15;23.73;;;;;;;13.52;100.00;100062.78;5069202;28;20033;-69
2021/08/07 03:32:18;;;;;;;53.53;24.90;;;;;;;13.49;100.00;100057.84;5052706;28;20112;-69
2021/08/07 03:34:43;;;;;;;43.67;22.83;;;;;;;13.53;100.00;100063.59;5069187;28;20029;-69
2021/08/07 03:37:11;;;;;;;34.20;20.83;;;;;;;13.59;100.00;100062.81;5068853;28;20294;-69
2021/08/07 03:39:42;;;;;;;39.45;22.95;;;;;;;13.61;100.00;100066.13;5053387;28;20404;-69
2021/08/07 03:42:08;;;;;;;47.37;24.43;;;;;;;13.63;100.00;100068.63;5052306;28;20036;-69
2021/08/07 03:44:34;;;;;;;39.67;22.90;;;;;;;13.55;100.00;100060.75;5052415;28;20574;-69
2021/08/07 03:46:59;;;;;;;36.70;21.77;;;;;;;13.55;100.00;100066.91;5068710;28;20060;-69
2021/08/07 03:49:26;;;;;;;;;;;;;;;13.58;100.00;100058.50;5069436;28;20040;-69
2021/08/07 03:51:51;;;;;;;;;;;;;;;13.67;100.00;100067.19;5069256;28;20338;-69
2021/08/07 03:54:18;;;;;;;36.13;20.77;;;;;;;13.70;100.00;100058.75;5068703;28;19908;-69
2021/08/07 03:56:44;;;;;;;34.60;20.98;;;;;;;13.73;100.00;100058.34;5068503;28;20028;-69
2021/08/07 03:59:10;;;;;;;46.67;22.00;;;;;;;13.65;100.00;100045.09;5068809;28;20094;-69
2021/08/07 04:01:36;;;;;;;33.10;20.00;;;;;;;13.63;100.00;100056.03;5068533;28;20040;-69
2021/08/07 04:04:07;;;;;;;39.17;21.45;;;;;;;13.67;100.00;100064.50;5068565;28;20059;-69
2021/08/07 04:06:42;;;;;;;39.15;19.90;;;;;;;13.61;100.00;100054.59;5052831;28;20028;-69
2021/08/07 04:09:15;;;;;;;43.05;23.67;;;;;;;13.58;100.00;100054.97;5068613;28;20322;-69
2021/08/07 04:11:44;;;;;;;41.78;23.30;;;;;;;13.63;100.00;100048.00;5068321;28;20089;-69
2021/08/07 04:14:09;;;;;;;42.60;21.93;;;;;;;13.65;100.00;100058.50;5068427;28;20036;-69
2021/08/07 04:16:35;;;;;;;45.60;25.93;;;;;;;13.67;100.00;100056.47;5068146;28;20119;-69
2021/08/07 04:19:09;;;;;;;41.47;21.63;;;;;;;13.60;100.00;100058.28;5068466;28;20533;-69
2021/08/07 04:21:36;;;;;;;;;;;;;;;13.60;100.00;100061.81;5068339;28;20472;-69
2021/08/07 04:24:02;;;;;;;40.65;22.48;;;;;;;13.54;100.00;100067.97;5068278;28;19979;-69
2021/08/07 04:26:32;;;;;;;39.97;21.35;;;;;;;13.54;100.00;100073.31;5067787;28;20032;-69
2021/08/07 04:28:57;;;;;;;41.83;22.80;;;;;;;13.54;100.00;100067.16;5068588;28;20449;-69
2021/08/07 04:31:23;;;;;;;33.60;21.37;;;;;;;13.65;100.00;100066.56;5068176;28;20462;-69
2021/08/07 04:33:48;;;;;;;38.67;21.33;;;;;;;13.58;100.00;100061.19;5068016;28;20040;-69
2021/08/07 04:36:14;;;;;;;37.47;22.57;;;;;;;13.71;100.00;100058.53;5067706;28;20056;-69
2021/08/07 04:38:40;;;;;;;33.33;18.48;;;;;;;13.78;100.00;100071.16;5067953;28;20032;-69
2021/08/07 04:41:05;;;;;;;42.07;21.70;;;;;;;13.73;100.00;100071.78;5069080;28;20441;-69
2021/08/07 04:43:35;;;;;;;41.97;21.15;;;;;;;13.71;100.00;100081.88;5051652;28;20025;-69
2021/08/07 04:46:01;;;;;;;31.40;19.75;;;;;;;13.80;100.00;100069.13;5067382;28;20036;-69
2021/08/07 04:48:27;;;;;;;;;;;;;;;13.82;100.00;100065.22;5068214;28;20039;-70
2021/08/07 04:50:59;;;;;;;31.17;20.05;;;;;;;13.92;100.00;100071.00;5068033;28;19916;-69
2021/08/07 04:53:24;;;;;;;29.13;19.07;;;;;;;13.88;100.00;100061.72;5067164;28;20029;-70
2021/08/07 04:55:56;;;;;;;27.33;17.65;;;;;;;13.97;100.00;100069.59;5051485;28;20271;-69
2021/08/07 04:58:21;;;;;;;27.45;19.00;;;;;;;13.97;100.00;100067.72;5051053;28;20098;-69
2021/08/07 05:00:47;;;;;;;26.70;17.33;;;;;;;14.13;100.00;100062.00;5067649;28;20487;-70
2021/08/07 05:03:12;;;;;;;24.90;17.95;;;;;;;14.07;100.00;100060.13;5067469;28;20063;-69
2021/08/07 05:05:41;;;;;;;29.65;18.00;;;;;;;14.02;100.00;100059.06;5067355;28;20044;-70
2021/08/07 05:08:07;;;;;;;26.80;17.90;;;;;;;14.18;100.00;100069.44;5067387;28;20458;-70
2021/08/07 05:10:34;;;;;;;33.47;19.38;;;;;;;14.23;100.00;100068.84;5051056;28;20124;-70
2021/08/07 05:13:00;;;;;;;27.17;17.60;;;;;;;14.28;100.00;100067.22;5067248;28;20044;-70
2021/08/07 05:15:26;;;;;;;25.00;16.20;;;;;;;14.39;100.00;100060.41;5050864;28;20052;-70
2021/08/07 05:17:54;;;;;;;23.27;16.55;;;;;;;14.52;100.00;100062.28;5067334;28;20040;-70
2021/08/07 05:20:20;;;;;;;30.83;17.05;;;;;;;14.48;100.00;100063.72;5067185;28;20032;-70
2021/08/07 05:22:46;;;;;;;22.23;15.27;;;;;;;14.61;100.00;100071.84;5067286;28;20055;-70
2021/08/07 05:25:11;;;;;;;25.10;15.80;;;;;;;14.59;100.00;100071.22;5050451;28;20456;-70
2021/08/07 05:27:37;;;;;;;22.35;14.85;;;;;;;14.73;100.00;100080.94;5066481;28;20036;-70
2021/08/07 05:30:05;;;;;;;25.77;15.02;;;;;;;14.77;100.00;100079.50;5067264;28;20048;-70
2021/08/07 05:32:32;;;;;;;20.55;15.27;;;;;;;14.85;100.00;100078.47;5067042;28;20021;-70
2021/08/07 05:34:57;;;;;;;21.15;13.90;;;;;;;14.92;100.00;100073.09;5067995;28;20094;-70
2021/08/07 05:37:23;;;;;;;21.10;13.43;;;;;;;15.00;100.00;100072.88;5066881;28;20037;-70
2021/08/07 05:39:50;;;;;;;21.20;14.57;;;;;;;15.06;99.34;100080.09;5067016;28;20113;-69
2021/08/07 05:42:15;;;;;;;18.23;13.63;;;;;;;15.07;98.83;100076.38;5066397;28;20377;-69
2021/08/07 05:44:41;;;;;;;17.20;13.52;;;;;;;14.92;98.96;100073.91;5066671;28;20016;-69
2021/08/07 05:47:07;;;;;;;21.05;14.57;;;;;;;15.05;99.34;100073.06;5050007;28;20099;-69
2021/08/07 05:49:34;;;;;;;21.95;13.98;;;;;;;15.12;98.91;100079.25;5050076;28;20024;-69
2021/08/07 05:52:00;;;;;;;24.08;13.63;;;;;;;15.33;98.93;100069.31;5050101;28;20123;-69
2021/08/07 05:54:25;;;;;;;22.70;13.07;;;;;;;15.29;97.68;100058.16;5049847;28;20048;-69
2021/08/07 05:56:51;;;;;;;19.00;13.13;;;;;;;15.78;96.55;100050.56;5066566;28;20548;-70
2021/08/07 05:59:16;;;;;;;16.37;11.83;;;;;;;16.38;93.07;100064.53;5067242;28;20027;-69
2021/08/07 06:01:42;;;;;;;17.17;12.02;;;;;;;16.45;89.67;100067.19;5066834;28;20032;-70
2021/08/07 06:04:07;;;;;;;17.80;10.97;;;;;;;16.44;91.87;100065.56;5066834;28;20076;-70
2021/08/07 06:06:33;;;;;;;13.53;9.93;;;;;;;16.59;90.88;100062.53;5053842;28;20067;-70
2021/08/07 06:08:59;;;;;;;13.35;10.70;;;;;;;16.68;90.99;100069.31;5070968;28;20028;-70
2021/08/07 06:11:24;;;;;;;16.23;11.00;;;;;;;16.82;91.47;100068.19;5070747;28;20046;-70
2021/08/07 06:13:50;;;;;;;13.95;10.32;;;;;;;16.51;89.71;100062.81;5053945;28;20131;-70
2021/08/07 06:16:15;;;;;;;13.67;11.27;;;;;;;16.65;90.76;100067.88;5053649;28;20481;-70
2021/08/07 06:18:41;;;;;;;13.95;10.70;;;;;;;16.41;91.17;100069.50;5070673;28;20516;-70
2021/08/07 06:21:07;;;;;;;15.27;11.10;;;;;;;16.66;91.57;100077.59;5053869;28;20036;-70
2021/08/07 06:23:33;;;;;;;13.52;10.23;;;;;;;17.30;91.02;100081.06;5054074;28;20027;-70
2021/08/07 06:25:58;;;;;;;11.00;9.77;;;;;;;18.41;84.28;100088.25;5069776;28;20045;-70
2021/08/07 06:28:25;;;;;;;12.95;8.68;;;;;;;18.89;81.67;100085.44;5069941;28;20674;-70
2021/08/07 06:30:51;;;;;;;12.15;8.52;;;;;;;18.61;79.76;100088.75;5070506;28;20036;-70
2021/08/07 06:33:21;;;;;;;15.20;8.60;;;;;;;18.73;81.80;100095.03;5070370;28;20370;-71
2021/08/07 06:35:46;;;;;;;11.47;9.10;;;;;;;19.07;79.35;100089.13;5070012;28;20028;-70
2021/08/07 06:38:12;;;;;;;14.43;7.93;;;;;;;19.08;80.79;100088.03;5070243;28;20020;-71
2021/08/07 06:40:37;;;;;;;10.83;8.73;;;;;;;19.07;78.72;100078.28;5070445;28;20591;-70
2021/08/07 06:43:06;;;;;;;12.82;8.13;;;;;;;19.06;79.04;100079.34;5070100;28;20036;-71
2021/08/07 06:45:34;;;;;;;11.98;7.47;;;;;;;19.53;76.71;100076.63;5070053;28;20031;-71
2021/08/07 06:48:04;;;;;;;13.75;7.55;;;;;;;19.59;77.33;100081.06;5053526;28;20123;-71
2021/08/07 06:50:30;;;;;;;11.38;7.72;;;;;;;18.88;79.40;100083.81;5053625;28;20045;-71
2021/08/07 06:52:55;;;;;;;12.00;7.80;;;;;;;18.85;79.18;100089.69;5053209;28;20107;-71
2021/08/07 06:55:21;;;;;;;11.85;7.22;;;;;;;18.86;80.89;100091.31;5070954;28;20060;-71
2021/08/07 06:57:46;;;;;;;12.07;8.07;;;;;;;18.90;79.23;100091.69;5069115;28;20051;-71
2021/08/07 07:00:12;;;;;;;11.07;7.65;;;;;;;19.12;79.50;100087.34;5068508;28;20028;-71
2021/08/07 07:02:40;;;;;;;13.73;7.00;;;;;;;19.87;78.57;100090.34;5067970;28;20045;-71
2021/08/07 07:05:05;;;;;;;12.93;7.83;;;;;;;19.89;76.55;100085.53;5068190;28;20501;-71
2021/08/07 07:07:31;;;;;;;9.63;7.47;;;;;;;19.66;77.82;100087.19;5068978;28;20035;-71
2021/08/07 07:09:57;;;;;;;8.73;7.10;;;;;;;20.65;73.56;100089.72;5068111;28;20040;-72
2021/08/07 07:12:22;;;;;;;9.53;7.20;;;;;;;20.78;73.84;100090.44;5068043;28;20030;-71
2021/08/07 07:14:47;;;;;;;9.60;6.50;;;;;;;21.04;73.67;100092.50;5069233;28;20445;-71
2021/08/07 07:17:13;;;;;;;9.90;7.85;;;;;;;20.85;74.80;100085.69;5068883;28;20086;-71
2021/08/07 07:19:39;;;;;;;11.40;7.13;;;;;;;21.32;72.07;100089.94;5070275;28;20036;-72
2021/08/07 07:22:05;;;;;;;9.23;7.05;;;;;;;22.06;71.48;100086.84;5053050;28;20799;-71
2021/08/07 07:24:31;;;;;;;7.63;6.47;;;;;;;21.06;73.19;100074.06;5069125;28;20408;-71
2021/08/07 07:26:57;;;;;;;10.32;7.15;;;;;;;21.18;72.66;100079.41;5069341;28;20039;-71
2021/08/07 07:29:22;;;;;;;10.87;6.40;;;;;;;21.06;74.13;100084.94;5068684;28;20090;-71
2021/08/07 07:31:48;;;;;;;11.02;7.00;;;;;;;20.72;74.73;100094.13;5069456;28;20021;-71
2021/08/07 07:34:16;;;;;;;11.93;6.88;;;;;;;20.53;74.75;100090.78;5052880;28;20037;-72
2021/08/07 07:36:42;;;;;;;9.20;7.23;;;;;;;20.65;77.71;100089.72;5069139;28;20038;-71
2021/08/07 07:39:07;;;;;;;8.07;6.13;;;;;;;20.21;76.06;100094.03;5069220;28;20485;-71
2021/08/07 07:41:34;;;;;;;10.52;6.50;;;;;;;20.59;75.35;100093.38;5052073;28;20058;-71
2021/08/07 07:43:59;;;;;;;15.33;7.10;;;;;;;21.08;73.63;100098.25;5052413;28;20044;-71
2021/08/07 07:46:25;;;;;;;10.27;6.60;;;;;;;21.26;73.76;100100.72;5068184;28;20464;-71
2021/08/07 07:48:51;;;;;;;12.43;6.18;;;;;;;21.05;72.13;100099.59;5069036;28;20036;-71
2021/08/07 07:51:16;;;;;;;19.50;8.77;;;;;;;21.01;73.80;100101.13;5069966;28;20032;-71
2021/08/07 07:53:42;;;;;;;10.73;7.13;;;;;;;20.23;77.14;100097.31;5069005;28;20369;-71
2021/08/07 07:56:07;;;;;;;6.83;5.50;;;;;;;21.34;74.43;100101.38;5051858;28;20036;-71
2021/08/07 07:58:35;;;;;;;10.00;6.18;;;;;;;21.28;73.63;100098.56;5069155;28;20036;-72
2021/08/07 08:01:01;;;;;;;12.63;6.47;;;;;;;21.03;73.74;100096.28;5068965;28;20020;-72
2021/08/07 08:03:27;;;;;;;12.57;6.70;;;;;;;21.01;73.62;100095.72;5068892;28;20040;-72
2021/08/07 08:05:52;;;;;;;7.13;6.30;;;;;;;20.72;74.83;100092.25;5051376;28;20598;-72
2021/08/07 08:08:17;;;;;;;19.20;8.10;;;;;;;20.43;74.17;100091.44;5068529;28;20277;-71
2021/08/07 08:10:43;;;;;;;17.30;7.60;;;;;;;19.22;79.42;100102.97;5068628;28;20123;-71
2021/08/07 08:13:15;;;;;;;12.82;6.93;;;;;;;19.85;80.58;100095.19;5068743;28;20114;-71
2021/08/07 08:15:40;;;;;;;11.23;6.70;;;;;;;20.15;76.45;100100.41;5068411;28;20028;-71
2021/08/07 08:18:08;;;;;;;7.28;5.65;;;;;;;19.49;78.90;100097.13;5068641;28;20024;-72
2021/08/07 08:20:36;;;;;;;9.27;6.45;;;;;;;20.12;76.85;100101.72;5068333;28;20591;-72
2021/08/07 08:23:01;;;;;;;15.57;8.23;;;;;;;20.27;75.36;100092.22;5069163;28;20086;-72
2021/08/07 08:25:29;;;;;;;14.93;6.87;;;;;;;20.51;75.46;100088.34;5069373;28;20024;-72
2021/08/07 08:27:55;;;;;;;10.32;6.85;;;;;;;20.43;75.79;100083.31;5066973;28;20461;-72
2021/08/07 08:30:22;;;;;;;12.60;7.10;;;;;;;20.86;74.09;100090.03;5068562;28;20047;-71
2021/08/07 08:32:48;;;;;;;12.85;6.55;;;;;;;20.62;72.23;100075.81;5068174;28;20153;-72
2021/08/07 08:35:14;;;;;;;12.02;7.72;;;;;;;19.90;74.78;100079.03;5068228;28;20537;-72
2021/08/07 08:37:39;;;;;;;9.50;6.28;;;;;;;20.29;73.29;100082.78;5051013;28;20030;-72
2021/08/07 08:40:07;;;;;;;11.20;7.70;;;;;;;20.17;74.99;100087.44;5068442;28;20035;-71
2021/08/07 08:42:33;;;;;;;6.68;5.97;;;;;;;20.41;76.08;100094.38;5051270;28;20182;-71
2021/08/07 08:44:58;;;;;;;13.65;7.38;;;;;;;19.85;74.76;100096.00;5067865;28;20517;-71
2021/08/07 08:47:24;;;;;;;9.65;7.30;;;;;;;19.77;75.26;100089.09;5067678;28;20111;-72
2021/08/07 08:49:53;;;;;;;11.45;9.65;;;;;;;19.33;77.48;100099.47;5068788;28;20032;-72
2021/08/07 08:52:25;;;;;;;11.43;8.73;;;;;;;19.40;78.05;100097.47;5050712;28;20595;-72
2021/08/07 08:54:52;;;;;;;10.45;9.20;;;;;;;19.32;78.20;100097.81;5067708;28;20082;-71
2021/08/07 08:57:19;;;;;;;;;;;;;;;19.03;79.99;100093.34;5067769;28;20024;-71
2021/08/07 08:59:45;;;;;;;12.77;10.55;;;;;;;19.13;79.28;100099.00;5051192;28;20023;-71
2021/08/07 09:02:11;;;;;;;13.30;10.18;;;;;;;18.99;79.79;100098.41;5067355;28;20159;-71
2021/08/07 09:04:37;;;;;;;;;;;;;;;19.15;79.02;100113.09;5051285;28;20113;-71
2021/08/07 09:07:04;;;;;;;11.52;10.20;;;;;;;18.78;79.99;100107.91;5067062;28;19938;-72
2021/08/07 09:09:37;;;;;;;;;;;;;;;18.78;80.83;100110.59;5067973;28;20040;-71
2021/08/07 09:12:06;;;;;;;13.10;10.68;;;;;;;18.46;80.63;100101.91;5066922;28;19928;-71
2021/08/07 09:14:47;;;;;;;12.80;10.15;;;;;;;18.46;80.57;100104.59;5067188;28;20028;-71
2021/08/07 09:17:18;;;;;;;11.15;9.38;;;;;;;18.77;81.45;100111.66;5067059;28;20063;-71
2021/08/07 09:19:57;;;;;;;16.33;10.05;;;;;;;18.91;80.51;100096.84;5067260;28;20476;-71
2021/08/07 09:22:31;;;;;;;12.82;10.68;;;;;;;18.78;79.40;100107.91;5067293;28;20079;-71
2021/08/07 09:25:05;;;;;;;14.55;10.90;;;;;;;18.94;80.70;100099.09;5067030;28;20394;-71
2021/08/07 09:27:37;;;;;;;12.93;11.00;;;;;;;19.06;78.98;100099.13;5066754;28;20041;-71
2021/08/07 09:30:25;;;;;;;13.55;10.77;;;;;;;19.27;78.69;100097.72;5066941;28;20093;-71
2021/08/07 09:32:56;;;;;;;13.25;10.35;;;;;;;19.22;78.55;100102.97;5067149;28;20036;-72
2021/08/07 09:35:31;;;;;;;13.55;11.63;;;;;;;18.71;79.47;100102.56;5066799;28;20039;-72
2021/08/07 09:38:04;;;;;;;15.30;12.25;;;;;;;19.10;78.73;100099.47;5066970;28;20032;-72
2021/08/07 09:40:40;;;;;;;16.00;11.48;;;;;;;19.45;77.92;100104.88;5066940;28;20035;-72
2021/08/07 09:43:07;;;;;;;13.32;11.77;;;;;;;19.32;77.32;100102.44;5067043;28;20032;-72
2021/08/07 09:45:33;;;;;;;14.45;10.45;;;;;;;19.34;76.71;100100.31;5067822;28;20048;-72
2021/08/07 09:48:01;;;;;;;12.00;9.80;;;;;;;18.98;76.11;100096.75;5067820;28;20071;-72
2021/08/07 09:50:30;;;;;;;12.57;9.73;;;;;;;18.89;77.12;100098.97;5066741;28;20055;-72
2021/08/07 09:53:02;;;;;;;10.90;9.05;;;;;;;19.43;74.72;100098.88;5050847;28;20029;-71
2021/08/07 09:55:28;;;;;;;17.15;8.70;;;;;;;19.53;75.27;100092.88;5050025;28;20032;-72
2021/08/07 09:58:22;;;;;;;10.80;9.73;;;;;;;18.97;75.51;100092.41;5066967;28;20048;-71
2021/08/07 10:00:48;;;;;;;14.90;9.18;;;;;;;18.75;76.60;100100.19;5065361;28;20390;-72
2021/08/07 10:03:27;;;;;;;12.63;8.68;;;;;;;18.35;76.59;100092.69;5066950;28;20071;-71
2021/08/07 10:06:18;;;;;;;14.90;8.93;;;;;;;18.43;79.13;100105.06;5066163;28;20029;-72
2021/08/07 10:08:46;;;;;;;10.70;7.30;;;;;;;18.85;77.81;100103.22;5066977;28;20132;-72
2021/08/07 10:11:13;;;;;;;10.02;7.72;;;;;;;18.78;77.20;100102.50;5049971;28;20032;-72
2021/08/07 10:13:42;;;;;;;9.95;7.35;;;;;;;18.95;76.53;100097.22;5066770;28;20407;-72
2021/08/07 10:16:15;;;;;;;11.20;7.25;;;;;;;19.11;74.74;100101.94;5066226;28;20763;-72
2021/08/07 10:18:44;;;;;;;7.93;7.00;;;;;;;19.38;75.50;100099.56;5050362;28;20115;-72
2021/08/07 10:21:10;;;;;;;10.90;6.70;;;;;;;19.20;74.67;100088.91;5066412;28;20947;-72
2021/08/07 10:23:35;;;;;;;7.25;6.22;;;;;;;19.48;73.77;100090.88;5067572;28;20111;-72
2021/08/07 10:26:02;;;;;;;11.00;6.88;;;;;;;19.38;74.33;100091.44;5049497;28;20326;-72
2021/08/07 10:28:32;;;;;;;12.48;6.10;;;;;;;19.66;73.49;100087.19;5049960;28;20032;-72
2021/08/07 10:31:02;;;;;;;8.65;5.68;;;;;;;20.24;72.37;100083.50;5049790;28;20028;-72
2021/08/07 10:33:32;;;;;;;9.98;6.15;;;;;;;20.55;70.43;100088.66;5066335;28;20033;-71
2021/08/07 10:35:57;;;;;;;8.05;5.82;;;;;;;20.78;68.80;100076.88;5066039;28;20028;-72
2021/08/07 10:38:23;;;;;;;7.40;5.78;;;;;;;21.13;68.79;100075.81;5050464;28;20071;-71
2021/08/07 10:40:49;;;;;;;11.45;4.95;;;;;;;22.01;66.77;100084.03;5066414;28;20791;-72
2021/08/07 10:43:17;;;;;;;10.13;5.53;;;;;;;21.35;66.46;100076.66;5066561;28;20028;-72
2021/08/07 10:45:43;;;;;;;9.60;5.55;;;;;;;20.85;68.98;100066.69;5066198;28;20453;-72
2021/08/07 10:48:34;;;;;;;8.65;5.05;;;;;;;21.19;68.58;100059.34;5065988;28;20032;-72
2021/08/07 10:50:59;;;;;;;7.63;5.00;;;;;;;21.23;66.14;100051.53;5068762;28;20037;-72
2021/08/07 10:53:25;;;;;;;7.47;5.47;;;;;;;20.46;69.50;100058.41;5069809;28;20032;-72
2021/08/07 10:55:55;;;;;;;12.23;4.97;;;;;;;21.36;68.39;100056.59;5070658;28;20036;-72
2021/08/07 10:58:33;;;;;;;9.35;5.38;;;;;;;21.04;67.31;100054.50;5069805;28;20044;-72
2021/08/07 11:04:01;;;;;;;11.10;5.63;;;;;;;20.36;70.25;100047.41;5070615;28;20105;-71
2021/08/07 11:06:38;;;;;;;8.15;4.82;;;;;;;21.21;68.16;100042.78;5070651;28;20048;-72
2021/08/07 11:09:27;;;;;;;8.77;5.45;;;;;;;21.37;66.68;100036.50;5070447;28;20449;-72
2021/08/07 11:12:11;;;;;;;8.52;6.05;;;;;;;21.33;66.63;100040.81;5070657;28;20086;-72
2021/08/07 11:14:39;;;;;;;7.10;5.00;;;;;;;21.42;67.39;100043.94;5069502;28;20032;-72
2021/08/07 11:17:05;;;;;;;8.18;4.47;;;;;;;21.01;69.95;100041.44;5070395;28;20567;-72
2021/08/07 11:19:49;;;;;;;10.40;5.47;;;;;;;21.11;68.11;100042.66;5070137;28;20041;-72
2021/08/07 11:22:40;;;;;;;6.10;4.72;;;;;;;21.42;66.92;100039.34;5070414;28;20108;-72